Main page
METAR-TAF:

METAR-TAF

Airports :

Clermont-Ferrand, France

Clermont-Ferrand Auvergne Airport

latitude: 45-47N, longitude: 003-10E, elevation: 332 m

Current weather observation

The report was made 23 minutes ago, at 00:00 UTC
Wind 6 kt from the North
Temperature 0°C
Humidity 69%
Pressure 1010 hPa
Visibility 10 km or more
Overcast at a height of 3900 ft

METAR: LFLC 230000Z AUTO 01006KT 9999 OVC039 M00/M05 Q1010 TEMPO BKN014

Time: 01:23 (00:23 UTC)

Forecast

The report was made 4 hours and 23 minutes ago, at 20:00 UTC
Forecast valid from 22 at 21 UTC to 23 at 21 UTC
Wind 8 kt from the North
Visibility 10 km or more
Overcast at a height of 4000 ft
Probability 30% :
Temporary
from 22 at 23 UTC to 23 at 09 UTC
Broken clouds at a height of 1400 ft

TAF: LFLC 222000Z 2221/2321 36008KT 9999 OVC040 PROB30 TEMPO 2223/2309 BKN014

Weather observations and forecasts of more than 4000 airports (METAR and TAF reports).

The available stations are represented by yellow and red dots on the map.

Hover mouse over dot to see the name of the station.

Then click to see weather observations and forecasts.

To change the map : click on the green buttons with a black cross to zoom in, on the green button with a dash to zoom out, or on the green arrows for adjacent maps.


METAR-TAF: